KATL/ATL METAR and TAF weather

Enter ICAO airport designator
Station Type Date Time Source
KATL METAR 2018/01/21 11:52 UTC NOAA

KATL 211152Z 00000KT 10SM CLR 05/02 A3024 RMK AO2 SLP244 T00500022 10083 20050 53005 $


Station Type Date Time Source
KATL Decoded METAR 2018/01/21 11:52 UTC NOAA

HARTSFIELD-JACKSON ATLANTA, GA, United States (KATL) 33-39N 84-26W
Jan 21, 2018 - 06:52 AM EST / 2018.01.21 1152 UTC
Wind: Calm:0
Visibility: 10 mile(s):0
Sky conditions: clear
Temperature: 41.0 F (5.0 C)
Dew Point: 36.0 F (2.2 C)
Relative Humidity: 82%
Pressure (altimeter): 30.24 in. Hg (1024 hPa)
Pressure tendency: 0.01 inches (0.5 hPa) higher than three hours ago
ob: KATL 211152Z 00000KT 10SM CLR 05/02 A3024 RMK AO2 SLP244 T00500022 10083 20050 53005
cycle: 12

Station Type Date Time Source
KATL TAF 2018/01/21 12:24 UTC NOAA

TAF KATL 211121Z 2112/2218 27003KT P6SM FEW180
FM211800 17005KT P6SM FEW060 SCT250
FM220000 14004KT P6SM SCT250
FM220800 12004KT P6SM BKN250
FM221400 13008KT P6SM OVC015


Example: see airport list